Time;durP1;ratioP1;P1;durP2;ratioP2;P2;SDS_P1;SDS_P2;PMS_P1;PMS_P2;Temp;Humidity;BMP_temperature;BMP_pressure;BME280_temperature;BME280_humidity;BME280_pressure;Samples;Min_cycle;Max_cycle;Signal;HPM_P1;HPM_P2
2022/08/24 00:02:00;;;;;;;1.23;1.02;;;23.40;62.00;;;;;;4967263;28;20438;-76
2022/08/24 00:04:25;;;;;;;1.40;0.90;;;23.40;62.10;;;;;;4971291;28;20058;-76
2022/08/24 00:06:51;;;;;;;1.17;1.08;;;23.30;62.10;;;;;;4923735;28;20136;-76
2022/08/24 00:09:17;;;;;;;1.67;1.10;;;23.30;62.30;;;;;;4962536;28;20240;-77
2022/08/24 00:11:43;;;;;;;1.30;1.10;;;23.30;62.50;;;;;;4978804;28;20033;-76
2022/08/24 00:14:10;;;;;;;1.33;1.00;;;23.30;62.80;;;;;;4978423;28;20033;-77
2022/08/24 00:16:36;;;;;;;1.88;1.10;;;23.20;63.00;;;;;;4960259;28;20213;-77
2022/08/24 00:19:03;;;;;;;1.10;1.00;;;23.20;62.90;;;;;;4964478;28;20037;-77
2022/08/24 00:21:29;;;;;;;1.95;1.10;;;23.10;63.00;;;;;;4942215;28;20027;-77
2022/08/24 00:23:55;;;;;;;2.05;1.02;;;23.10;63.00;;;;;;4965493;28;20099;-77
2022/08/24 00:26:21;;;;;;;1.17;1.05;;;23.10;63.10;;;;;;4975479;28;20230;-77
2022/08/24 00:28:47;;;;;;;1.97;1.10;;;23.10;63.30;;;;;;4961154;28;20049;-77
2022/08/24 00:31:14;;;;;;;2.78;1.20;;;23.00;63.30;;;;;;4950564;28;20057;-77
2022/08/24 00:33:40;;;;;;;1.30;1.10;;;23.00;63.50;;;;;;4944373;28;20026;-76
2022/08/24 00:36:06;;;;;;;1.10;1.00;;;22.90;63.40;;;;;;4954089;28;20049;-77
2022/08/24 00:38:34;;;;;;;1.38;1.15;;;22.90;63.50;;;;;;4938651;28;20030;-77
2022/08/24 00:41:00;;;;;;;1.10;0.98;;;22.90;63.50;;;;;;4953941;28;20034;-77
2022/08/24 00:43:27;;;;;;;1.63;1.20;;;22.80;63.70;;;;;;4953194;28;20080;-77
2022/08/24 00:45:53;;;;;;;1.60;1.00;;;22.80;63.80;;;;;;4947200;28;20026;-77
2022/08/24 00:48:28;;;;;;;1.50;0.95;;;22.80;63.80;;;;;;4973876;28;20517;-77
2022/08/24 00:51:02;;;;;;;1.15;1.02;;;22.70;64.50;;;;;;4967014;28;20026;-76
2022/08/24 00:53:34;;;;;;;1.40;1.20;;;22.70;64.20;;;;;;4957363;28;20045;-76
2022/08/24 00:56:07;;;;;;;1.83;1.00;;;22.70;64.50;;;;;;4965809;28;20023;-77
2022/08/24 00:58:39;;;;;;;1.10;1.00;;;22.60;64.40;;;;;;4962566;28;20025;-77
2022/08/24 01:01:07;;;;;;;1.65;1.10;;;22.60;64.90;;;;;;4966513;28;20054;-77
2022/08/24 01:03:36;;;;;;;1.30;1.20;;;22.60;64.70;;;;;;4971002;28;20380;-77
2022/08/24 01:06:02;;;;;;;1.60;1.20;;;22.50;64.70;;;;;;4962096;28;20591;-77
2022/08/24 01:08:28;;;;;;;1.63;1.25;;;22.50;64.50;;;;;;4915825;28;20051;-77
2022/08/24 01:11:02;;;;;;;2.38;1.20;;;22.40;64.60;;;;;;4938380;28;20113;-77
2022/08/24 01:13:29;;;;;;;1.33;1.20;;;22.40;65.30;;;;;;4939523;28;20026;-77
2022/08/24 01:16:00;;;;;;;1.38;1.10;;;22.40;64.90;;;;;;4963277;28;20224;-77
2022/08/24 01:21:23;;;;;;;2.05;1.10;;;22.40;65.20;;;;;;4949554;28;20093;-77
2022/08/24 01:23:49;;;;;;;1.40;1.10;;;22.30;66.20;;;;;;4941026;28;20025;-77
2022/08/24 01:26:46;;;;;;;1.27;1.10;;;22.30;65.30;;;;;;4946803;28;20030;-77
2022/08/24 01:29:24;;;;;;;2.03;1.20;;;22.30;66.20;;;;;;4952056;28;20054;-77
2022/08/24 01:31:50;;;;;;;1.80;1.10;;;22.20;67.00;;;;;;4970346;28;20048;-77
2022/08/24 01:34:16;;;;;;;2.58;1.23;;;22.20;65.60;;;;;;4951937;28;20056;-77
2022/08/24 01:36:49;;;;;;;2.05;1.15;;;22.20;65.70;;;;;;4969435;28;20109;-77
2022/08/24 01:39:16;;;;;;;2.40;1.10;;;22.20;66.60;;;;;;4939084;28;20026;-77
2022/08/24 01:41:42;;;;;;;1.20;1.10;;;22.10;65.70;;;;;;4930254;28;20061;-77
2022/08/24 01:44:08;;;;;;;3.00;1.20;;;22.10;65.70;;;;;;4952474;28;20109;-77
2022/08/24 01:46:35;;;;;;;2.20;1.35;;;22.10;65.90;;;;;;4936696;28;20038;-77
2022/08/24 01:49:01;;;;;;;1.95;1.10;;;22.00;66.10;;;;;;4958497;28;20081;-77
2022/08/24 01:51:32;;;;;;;1.45;1.17;;;22.00;66.30;;;;;;4966666;28;20048;-77
2022/08/24 01:54:01;;;;;;;1.37;1.17;;;22.00;66.80;;;;;;4950273;28;20122;-77
2022/08/24 01:56:27;;;;;;;1.65;1.30;;;22.00;66.30;;;;;;4953220;28;20344;-77
2022/08/24 01:58:53;;;;;;;2.05;1.45;;;21.90;66.30;;;;;;4961770;28;20040;-77
2022/08/24 02:01:19;;;;;;;1.40;1.20;;;21.90;66.50;;;;;;4948339;28;20782;-77
2022/08/24 02:03:45;;;;;;;1.80;1.35;;;21.90;66.60;;;;;;4972621;28;21632;-77
2022/08/24 02:06:11;;;;;;;2.73;1.30;;;21.80;66.60;;;;;;4977290;28;20483;-77
2022/08/24 02:08:37;;;;;;;1.60;1.40;;;21.80;66.70;;;;;;4935337;28;20403;-77
2022/08/24 02:11:07;;;;;;;1.88;1.20;;;21.80;66.80;;;;;;4953247;28;20403;-77
2022/08/24 02:13:34;;;;;;;1.27;1.17;;;21.80;67.30;;;;;;4945085;28;20629;-77
2022/08/24 02:16:00;;;;;;;1.30;1.10;;;21.70;66.90;;;;;;4970187;28;20089;-77
2022/08/24 02:18:26;;;;;;;1.60;1.15;;;21.70;67.10;;;;;;4952618;28;20324;-77
2022/08/24 02:20:52;;;;;;;1.50;1.30;;;21.70;67.10;;;;;;4979281;28;20088;-77
2022/08/24 02:23:19;;;;;;;1.70;0.90;;;21.60;67.10;;;;;;4962126;28;20340;-76
2022/08/24 02:25:45;;;;;;;1.92;1.20;;;21.60;67.10;;;;;;4951427;28;20022;-77
2022/08/24 02:28:11;;;;;;;1.30;1.20;;;21.60;67.20;;;;;;4958849;28;20082;-77
2022/08/24 02:30:39;;;;;;;1.70;1.20;;;21.50;67.20;;;;;;4954201;28;20054;-77
2022/08/24 02:33:06;;;;;;;1.50;1.20;;;21.50;67.20;;;;;;4952776;28;20018;-77
2022/08/24 02:35:31;;;;;;;2.08;1.10;;;21.50;67.40;;;;;;4965071;28;20216;-77
2022/08/24 02:37:57;;;;;;;1.33;1.13;;;21.40;67.40;;;;;;4977833;28;20034;-77
2022/08/24 02:40:24;;;;;;;1.80;1.10;;;21.40;68.20;;;;;;4944796;28;20880;-77
2022/08/24 02:42:50;;;;;;;1.45;1.05;;;21.40;67.50;;;;;;4955792;28;20033;-77
2022/08/24 02:45:16;;;;;;;1.40;1.00;;;21.40;67.50;;;;;;4947889;28;20034;-77
2022/08/24 02:47:42;;;;;;;1.73;1.27;;;21.40;67.70;;;;;;4944380;28;20487;-77
2022/08/24 02:50:11;;;;;;;1.88;1.20;;;21.30;67.80;;;;;;4953233;28;20034;-77
2022/08/24 02:52:38;;;;;;;1.50;1.23;;;21.30;68.10;;;;;;4955581;28;20029;-77
2022/08/24 02:55:06;;;;;;;2.42;1.30;;;21.30;67.80;;;;;;4927189;28;20034;-77
2022/08/24 02:57:31;;;;;;;2.15;1.13;;;21.20;67.80;;;;;;4948410;28;20320;-77
2022/08/24 02:59:57;;;;;;;1.40;1.20;;;21.20;67.80;;;;;;4967145;28;20043;-77
2022/08/24 03:02:23;;;;;;;1.45;1.10;;;21.20;68.00;;;;;;4951725;28;20022;-77
2022/08/24 03:04:49;;;;;;;1.20;1.10;;;21.20;68.00;;;;;;4976180;28;20144;-77
2022/08/24 03:07:15;;;;;;;1.20;1.10;;;21.20;68.00;;;;;;4941753;28;20412;-77
2022/08/24 03:09:40;;;;;;;1.50;1.20;;;21.20;68.10;;;;;;4971988;28;20654;-77
2022/08/24 03:12:06;;;;;;;1.30;1.10;;;21.10;68.20;;;;;;4944503;28;20488;-77
2022/08/24 03:14:34;;;;;;;1.50;1.10;;;21.10;68.20;;;;;;4963254;28;20401;-77
2022/08/24 03:17:00;;;;;;;2.15;1.35;;;21.10;68.30;;;;;;4968432;28;20022;-77
2022/08/24 03:19:26;;;;;;;1.70;1.30;;;21.00;68.30;;;;;;4949557;28;20505;-77
2022/08/24 03:21:53;;;;;;;1.75;1.17;;;21.00;68.20;;;;;;4973557;28;20546;-77
2022/08/24 03:24:20;;;;;;;2.20;1.10;;;21.00;68.30;;;;;;4973331;28;20399;-77
2022/08/24 03:26:46;;;;;;;1.30;1.20;;;21.00;68.50;;;;;;4959609;28;20318;-77
2022/08/24 03:29:12;;;;;;;1.17;1.00;;;21.00;68.50;;;;;;4924077;28;20046;-79
2022/08/24 03:31:38;;;;;;;1.45;1.00;;;20.90;68.50;;;;;;4964328;28;20057;-79
2022/08/24 03:34:03;;;;;;;1.10;1.00;;;20.90;69.30;;;;;;4971823;28;20110;-79
2022/08/24 03:36:29;;;;;;;1.40;0.93;;;20.90;68.50;;;;;;4962034;28;20050;-79
2022/08/24 03:38:55;;;;;;;1.50;1.20;;;20.80;68.50;;;;;;4957487;28;20206;-79
2022/08/24 03:41:21;;;;;;;1.58;1.02;;;20.90;68.60;;;;;;4953247;28;20033;-79
2022/08/24 03:43:47;;;;;;;1.50;1.10;;;20.80;68.70;;;;;;4926458;28;20058;-79
2022/08/24 03:46:18;;;;;;;1.88;1.40;;;20.80;68.80;;;;;;4953045;28;20041;-78
2022/08/24 03:48:45;;;;;;;2.40;1.10;;;20.80;69.30;;;;;;4970507;28;20093;-78
2022/08/24 03:51:14;;;;;;;1.17;1.05;;;20.80;69.00;;;;;;4976547;28;20264;-77
2022/08/24 03:53:40;;;;;;;1.50;1.20;;;20.70;69.00;;;;;;4935802;28;20257;-77
2022/08/24 03:56:07;;;;;;;1.40;1.07;;;20.70;69.00;;;;;;4967659;28;20022;-77
2022/08/24 03:58:35;;;;;;;1.80;1.20;;;20.70;69.10;;;;;;4945899;28;20023;-77
2022/08/24 04:01:02;;;;;;;1.70;1.20;;;20.70;69.40;;;;;;4961607;28;20050;-77
2022/08/24 04:03:28;;;;;;;2.70;1.40;;;20.70;69.40;;;;;;4973646;28;20391;-77
2022/08/24 04:05:53;;;;;;;2.05;1.30;;;20.70;69.50;;;;;;4943345;28;20172;-77
2022/08/24 04:08:19;;;;;;;2.27;1.20;;;20.60;69.50;;;;;;4974640;28;20034;-77
2022/08/24 04:10:47;;;;;;;2.28;1.30;;;20.70;69.50;;;;;;4934423;28;20149;-77
2022/08/24 04:13:12;;;;;;;1.73;1.30;;;20.60;69.50;;;;;;4963526;28;20041;-77
2022/08/24 04:15:40;;;;;;;1.30;1.20;;;20.60;69.50;;;;;;4953026;28;20058;-77
2022/08/24 04:18:06;;;;;;;1.17;1.03;;;20.60;69.80;;;;;;4949529;28;20041;-77
2022/08/24 04:20:38;;;;;;;2.05;1.20;;;20.50;69.70;;;;;;4970019;28;20101;-77
2022/08/24 04:23:04;;;;;;;1.40;1.10;;;20.50;70.40;;;;;;4972053;28;20030;-77
2022/08/24 04:25:29;;;;;;;1.77;1.20;;;20.50;69.80;;;;;;4955190;28;20031;-77
2022/08/24 04:27:55;;;;;;;1.50;1.10;;;20.50;69.80;;;;;;4946566;28;20451;-77
2022/08/24 04:30:21;;;;;;;1.13;1.00;;;20.50;69.90;;;;;;4953497;28;20092;-77
2022/08/24 04:32:47;;;;;;;1.60;1.00;;;20.50;70.00;;;;;;4933878;28;20297;-77
2022/08/24 04:35:13;;;;;;;1.70;1.13;;;20.40;70.10;;;;;;4957459;28;20101;-77
2022/08/24 04:37:39;;;;;;;2.10;1.10;;;20.40;70.10;;;;;;4965461;28;20610;-77
2022/08/24 04:40:06;;;;;;;2.00;1.10;;;20.40;70.20;;;;;;4958292;28;20598;-77
2022/08/24 04:42:32;;;;;;;1.77;1.00;;;20.40;70.40;;;;;;4969098;28;20032;-77
2022/08/24 04:44:58;;;;;;;1.40;0.90;;;20.40;70.50;;;;;;4960710;28;20483;-77
2022/08/24 04:47:23;;;;;;;2.00;1.20;;;20.30;70.50;;;;;;4956556;28;20026;-77
2022/08/24 04:49:49;;;;;;;1.43;1.00;;;20.30;70.50;;;;;;4941407;28;20375;-77
2022/08/24 04:52:15;;;;;;;2.13;1.10;;;20.30;70.50;;;;;;4963121;28;20685;-77
2022/08/24 04:54:41;;;;;;;1.43;1.00;;;20.30;70.50;;;;;;4970962;28;20307;-77
2022/08/24 04:57:07;;;;;;;1.35;1.00;;;20.30;70.70;;;;;;4926179;28;20237;-77
2022/08/24 04:59:32;;;;;;;1.75;1.10;;;20.30;70.70;;;;;;4942269;28;20137;-77
2022/08/24 05:01:58;;;;;;;2.00;1.20;;;20.30;70.80;;;;;;4919420;28;20206;-77
2022/08/24 05:04:24;;;;;;;1.50;1.10;;;20.20;70.90;;;;;;4921234;28;20040;-77
2022/08/24 05:06:50;;;;;;;1.30;1.20;;;20.30;71.00;;;;;;4961041;28;20069;-77
2022/08/24 05:09:15;;;;;;;1.40;1.10;;;20.30;71.10;;;;;;4944166;28;20026;-77
2022/08/24 05:11:41;;;;;;;1.83;1.00;;;20.30;71.10;;;;;;4978277;28;20251;-77
2022/08/24 05:14:07;;;;;;;3.03;1.03;;;20.30;71.00;;;;;;4944047;28;20039;-77
2022/08/24 05:16:36;;;;;;;1.20;0.90;;;20.20;71.20;;;;;;4965909;28;20145;-77
2022/08/24 05:19:03;;;;;;;1.20;0.98;;;20.20;71.20;;;;;;4957495;28;20029;-77
2022/08/24 05:21:29;;;;;;;1.10;0.98;;;20.30;71.50;;;;;;4958356;28;20026;-77
2022/08/24 05:23:55;;;;;;;1.13;1.00;;;20.30;71.50;;;;;;4956630;28;20314;-77
2022/08/24 05:26:24;;;;;;;2.00;1.00;;;20.30;71.60;;;;;;4970633;28;20030;-77
2022/08/24 05:28:54;;;;;;;1.95;1.00;;;20.30;71.90;;;;;;4951752;28;20060;-77
2022/08/24 05:31:23;;;;;;;1.38;1.00;;;20.30;72.10;;;;;;4957991;28;20031;-77
2022/08/24 05:33:49;;;;;;;1.42;1.10;;;20.40;72.20;;;;;;4938371;28;20031;-77
2022/08/24 05:36:31;;;;;;;1.58;1.20;;;20.30;71.80;;;;;;4950385;28;20400;-77
2022/08/24 05:38:59;;;;;;;1.33;0.90;;;20.40;73.10;;;;;;4947650;28;20101;-76
2022/08/24 05:41:25;;;;;;;1.45;1.13;;;20.40;72.00;;;;;;4952345;28;20105;-77
2022/08/24 05:43:52;;;;;;;1.10;1.00;;;20.40;72.00;;;;;;4953816;28;20034;-77
2022/08/24 05:46:19;;;;;;;1.30;0.95;;;20.40;72.10;;;;;;4957401;28;20137;-77
2022/08/24 05:48:45;;;;;;;1.67;1.08;;;20.50;72.20;;;;;;4944112;28;20426;-77
2022/08/24 05:51:11;;;;;;;1.73;1.07;;;20.50;72.20;;;;;;4955710;28;20626;-77
2022/08/24 05:53:38;;;;;;;1.60;1.20;;;20.50;72.20;;;;;;4961024;28;20109;-77
2022/08/24 05:56:09;;;;;;;1.52;1.20;;;20.60;72.40;;;;;;4947890;28;20034;-77
2022/08/24 05:58:37;;;;;;;1.85;1.13;;;20.60;72.60;;;;;;4942874;28;20033;-77
2022/08/24 06:01:27;;;;;;;1.53;1.10;;;20.60;72.70;;;;;;4962083;28;20026;-77
2022/08/24 06:03:54;;;;;;;2.00;1.33;;;20.70;74.40;;;;;;4940819;28;20055;-77
2022/08/24 06:06:22;;;;;;;1.40;1.30;;;20.70;72.90;;;;;;4957336;28;20030;-77
2022/08/24 06:08:50;;;;;;;2.33;1.30;;;20.80;73.10;;;;;;4950534;28;20030;-77
2022/08/24 06:11:31;;;;;;;1.48;1.20;;;20.80;73.30;;;;;;4951465;28;20116;-77
2022/08/24 06:14:00;;;;;;;1.57;1.30;;;20.90;73.80;;;;;;4969565;28;20037;-77
2022/08/24 06:16:27;;;;;;;1.50;1.30;;;21.00;73.60;;;;;;4961561;28;20031;-77
2022/08/24 06:18:53;;;;;;;2.30;1.40;;;21.00;73.50;;;;;;4955008;28;20168;-77
2022/08/24 06:21:22;;;;;;;3.30;1.80;;;21.10;73.70;;;;;;4944520;28;20285;-77
2022/08/24 06:23:49;;;;;;;3.22;2.03;;;21.20;73.90;;;;;;4937745;28;20245;-77
2022/08/24 06:29:01;;;;;;;4.00;2.63;;;21.40;74.10;;;;;;4964226;28;20113;-78
2022/08/24 06:31:27;;;;;;;4.85;2.90;;;21.50;74.30;;;;;;4964294;28;20600;-77
2022/08/24 06:33:54;;;;;;;4.50;2.53;;;21.60;74.50;;;;;;4952360;28;20253;-77
2022/08/24 06:36:20;;;;;;;4.35;2.80;;;21.80;74.80;;;;;;4910696;28;20185;-77
2022/08/24 06:38:46;;;;;;;4.20;2.53;;;21.90;74.90;;;;;;4951385;28;20716;-77
2022/08/24 06:41:12;;;;;;;4.82;2.70;;;22.00;75.00;;;;;;4955073;28;20934;-77
2022/08/24 06:43:38;;;;;;;5.97;3.45;;;22.10;75.10;;;;;;4925986;28;20030;-77
2022/08/24 06:46:04;;;;;;;5.27;3.03;;;22.20;75.20;;;;;;4963441;28;20085;-77
2022/08/24 06:48:30;;;;;;;6.70;4.38;;;22.30;75.40;;;;;;4941809;28;20696;-77
2022/08/24 06:50:57;;;;;;;7.95;4.85;;;22.50;76.40;;;;;;4938507;28;20488;-77
2022/08/24 06:53:23;;;;;;;8.90;5.50;;;22.60;75.90;;;;;;4942233;28;20503;-77
2022/08/24 06:55:50;;;;;;;8.43;5.68;;;22.80;76.10;;;;;;4959145;28;20510;-77
2022/08/24 06:58:17;;;;;;;8.43;6.00;;;22.90;76.30;;;;;;4933648;28;20027;-77
2022/08/24 07:00:43;;;;;;;10.23;6.20;;;23.10;76.40;;;;;;4975239;28;20499;-77
2022/08/24 07:03:09;;;;;;;8.75;6.22;;;23.20;76.30;;;;;;4949736;28;20034;-77
2022/08/24 07:05:35;;;;;;;10.18;6.82;;;23.40;76.40;;;;;;4952191;28;20689;-77
2022/08/24 07:08:02;;;;;;;8.13;5.83;;;23.50;76.70;;;;;;4927323;28;20186;-76
2022/08/24 07:10:29;;;;;;;9.38;5.80;;;23.70;76.80;;;;;;4923200;28;20137;-77
2022/08/24 07:12:55;;;;;;;8.80;6.05;;;23.90;76.80;;;;;;4965503;28;20080;-77
2022/08/24 07:15:22;;;;;;;9.45;6.18;;;24.10;76.70;;;;;;4940728;28;20073;-77
2022/08/24 07:17:47;;;;;;;9.35;6.43;;;24.30;76.40;;;;;;4959256;28;20010;-77
2022/08/24 07:20:14;;;;;;;7.50;5.33;;;24.40;76.10;;;;;;4960636;28;20054;-77
2022/08/24 07:22:40;;;;;;;8.10;5.53;;;24.50;75.70;;;;;;4916800;28;20442;-77
2022/08/24 07:25:06;;;;;;;8.88;5.63;;;24.70;75.90;;;;;;4953422;28;20019;-77
2022/08/24 07:27:35;;;;;;;11.27;6.63;;;24.80;76.30;;;;;;4930905;28;20035;-76
2022/08/24 07:30:00;;;;;;;10.50;6.57;;;25.00;76.70;;;;;;4903418;28;20039;-77
2022/08/24 07:32:27;;;;;;;12.88;7.28;;;25.20;76.60;;;;;;4935448;28;20019;-77
2022/08/24 07:34:53;;;;;;;10.40;6.75;;;25.40;76.20;;;;;;4915989;28;20093;-77
2022/08/24 07:37:19;;;;;;;9.33;6.43;;;25.60;75.70;;;;;;4895509;28;20030;-77
2022/08/24 07:39:45;;;;;;;9.75;6.82;;;25.80;75.30;;;;;;4921872;28;20058;-77
2022/08/24 07:42:12;;;;;;;9.45;6.78;;;25.90;74.90;;;;;;4908721;28;20767;-77
2022/08/24 07:44:38;;;;;;;9.40;6.13;;;26.00;74.60;;;;;;4913104;28;20175;-77
2022/08/24 07:47:03;;;;;;;9.15;6.53;;;26.10;75.30;;;;;;4927444;28;20060;-77
2022/08/24 07:49:30;;;;;;;8.27;6.43;;;26.20;74.70;;;;;;4921858;28;20495;-77
2022/08/24 07:51:56;;;;;;;8.27;6.13;;;26.40;75.10;;;;;;4919253;28;20026;-77
2022/08/24 07:54:22;;;;;;;8.33;6.43;;;26.60;75.60;;;;;;4924115;28;22764;-77
2022/08/24 07:56:49;;;;;;;8.30;6.10;;;26.70;75.40;;;;;;4948288;28;20375;-77
2022/08/24 07:59:16;;;;;;;7.50;5.78;;;26.90;75.00;;;;;;4950045;28;20628;-77
2022/08/24 08:01:42;;;;;;;7.00;5.20;;;27.10;74.50;;;;;;4919219;28;20546;-77
2022/08/24 08:04:09;;;;;;;6.93;5.53;;;27.30;73.90;;;;;;4936526;28;20038;-77
2022/08/24 08:06:34;;;;;;;8.73;6.03;;;27.30;73.30;;;;;;4916058;28;20526;-77
2022/08/24 08:09:03;;;;;;;6.72;5.43;;;27.50;73.40;;;;;;4920170;28;20551;-77
2022/08/24 08:11:29;;;;;;;7.05;4.70;;;27.60;73.50;;;;;;4914485;28;20043;-77
2022/08/24 08:13:54;;;;;;;7.07;5.00;;;27.70;73.30;;;;;;4935263;28;20041;-77
2022/08/24 08:16:22;;;;;;;6.40;5.07;;;27.80;73.10;;;;;;4910472;28;20488;-77
2022/08/24 08:18:47;;;;;;;6.40;4.85;;;27.90;73.00;;;;;;4937678;28;20243;-77
2022/08/24 08:24:16;;;;;;;5.03;3.72;;;28.30;72.80;;;;;;4924046;28;20031;-77
2022/08/24 08:26:49;;;;;;;5.22;4.50;;;28.40;72.40;;;;;;4924765;28;20043;-77
2022/08/24 08:29:17;;;;;;;6.75;4.45;;;28.60;71.80;;;;;;4929479;28;20140;-77
2022/08/24 08:31:42;;;;;;;4.57;3.40;;;28.80;72.80;;;;;;4901465;28;20555;-77
2022/08/24 08:34:09;;;;;;;4.38;2.85;;;29.10;72.60;;;;;;4929663;28;20034;-77
2022/08/24 08:36:37;;;;;;;4.43;2.85;;;29.30;72.20;;;;;;4907465;28;20046;-77
2022/08/24 08:39:04;;;;;;;3.70;2.80;;;29.50;71.40;;;;;;4924147;28;20023;-76
2022/08/24 08:41:55;;;;;;;4.27;2.60;;;29.70;70.70;;;;;;4909418;28;20236;-77
2022/08/24 08:44:53;;;;;;;3.60;3.05;;;29.90;69.40;;;;;;4935607;28;20137;-77
2022/08/24 08:47:44;;;;;;;4.78;3.10;;;30.20;69.70;;;;;;4904619;28;21181;-77
2022/08/24 08:50:22;;;;;;;5.18;3.15;;;30.50;68.60;;;;;;4910025;28;20059;-77
2022/08/24 08:53:46;;;;;;;4.15;3.53;;;30.70;68.30;;;;;;4934456;28;20616;-77
2022/08/24 08:56:27;;;;;;;5.10;3.40;;;30.90;66.90;;;;;;4827143;29;20045;-77
2022/08/24 08:59:26;;;;;;;5.57;3.40;;;31.00;66.80;;;;;;4862138;29;20039;-77
2022/08/24 09:02:03;;;;;;;5.28;3.33;;;31.10;66.70;;;;;;4939302;28;20508;-78
2022/08/24 09:04:43;;;;;;;4.00;3.33;;;31.20;65.30;;;;;;4932789;28;20027;-77
2022/08/24 09:07:43;;;;;;;3.67;3.17;;;31.30;65.80;;;;;;4916708;28;20030;-77
2022/08/24 09:10:35;;;;;;;4.63;3.13;;;31.30;63.90;;;;;;4908476;28;20298;-77
2022/08/24 09:13:10;;;;;;;4.65;3.03;;;31.30;63.50;;;;;;4937623;28;20046;-77
2022/08/24 09:16:25;;;;;;;5.70;3.17;;;31.20;63.30;;;;;;4924157;28;20039;-77
2022/08/24 09:18:56;;;;;;;5.38;3.20;;;31.20;62.50;;;;;;4916649;28;20094;-77
2022/08/24 09:21:25;;;;;;;5.68;3.20;;;31.20;63.00;;;;;;4905657;28;20325;-77
2022/08/24 09:24:16;;;;;;;5.33;3.67;;;31.10;63.00;;;;;;4935894;28;20027;-77
2022/08/24 09:27:20;;;;;;;4.53;3.20;;;31.10;62.50;;;;;;4931125;28;20031;-77
2022/08/24 09:30:10;;;;;;;6.75;3.67;;;31.00;62.10;;;;;;4957772;28;20030;-77
2022/08/24 09:33:08;;;;;;;5.80;3.42;;;31.00;61.90;;;;;;4942939;28;20030;-77
2022/08/24 09:35:54;;;;;;;4.95;3.25;;;31.00;61.50;;;;;;4934865;28;20488;-77
2022/08/24 09:38:43;;;;;;;3.83;2.60;;;31.00;62.80;;;;;;4959041;28;20030;-77
2022/08/24 09:41:18;;;;;;;4.20;3.40;;;31.00;62.20;;;;;;4946735;28;20240;-77
2022/08/24 09:44:24;;;;;;;3.25;2.88;;;31.20;63.50;;;;;;4938758;28;20038;-77
2022/08/24 09:47:31;;;;;;;3.80;3.03;;;31.30;61.80;;;;;;4949743;28;20027;-76
2022/08/24 09:50:17;;;;;;;3.30;2.60;;;31.50;61.40;;;;;;4943205;28;20038;-77
2022/08/24 09:52:59;;;;;;;3.53;2.30;;;31.70;62.70;;;;;;4938561;28;20489;-77
2022/08/24 09:55:25;;;;;;;3.00;2.70;;;31.80;61.10;;;;;;4945299;28;20031;-77
2022/08/24 09:58:09;;;;;;;2.85;2.30;;;31.90;61.80;;;;;;4939819;28;20041;-77
2022/08/24 10:00:46;;;;;;;2.90;2.60;;;32.00;62.10;;;;;;4935991;28;20022;-77
2022/08/24 10:03:38;;;;;;;2.88;2.50;;;32.10;59.70;;;;;;4956421;28;20312;-77
2022/08/24 10:06:19;;;;;;;2.73;2.23;;;32.20;59.70;;;;;;4930883;28;20038;-76
2022/08/24 10:09:05;;;;;;;3.55;2.40;;;32.30;59.70;;;;;;4968361;28;20037;-77
2022/08/24 10:11:59;;;;;;;3.83;2.80;;;32.50;60.20;;;;;;4943209;28;20120;-77
2022/08/24 10:14:42;;;;;;;4.32;2.90;;;33.00;60.80;;;;;;4932768;28;20229;-77
2022/08/24 10:17:27;;;;;;;5.10;2.75;;;33.40;61.50;;;;;;4949909;28;20175;-77
2022/08/24 10:19:58;;;;;;;3.60;3.07;;;34.00;60.20;;;;;;4967672;28;20031;-76
2022/08/24 10:22:44;;;;;;;2.45;2.20;;;34.40;62.10;;;;;;4930677;28;20621;-77
2022/08/24 10:25:18;;;;;;;3.58;2.30;;;35.00;59.20;;;;;;4954543;28;20335;-77
2022/08/24 10:27:56;;;;;;;2.55;2.35;;;35.50;59.60;;;;;;4959431;28;20463;-77
2022/08/24 10:30:53;;;;;;;2.35;2.15;;;36.00;57.30;;;;;;4956868;28;20709;-77
2022/08/24 10:33:25;;;;;;;2.47;2.27;;;36.70;56.30;;;;;;4977883;28;20023;-77
2022/08/24 10:36:16;;;;;;;2.22;1.95;;;37.10;56.80;;;;;;4981189;28;20034;-77
2022/08/24 10:42:03;;;;;;;2.40;2.20;;;37.90;52.80;;;;;;4959977;28;20106;-77
2022/08/24 10:44:55;;;;;;;2.72;2.47;;;38.40;51.40;;;;;;4933059;28;20044;-77
2022/08/24 10:47:31;;;;;;;2.73;2.53;;;38.90;50.60;;;;;;4953564;28;23597;-77
2022/08/24 10:50:26;;;;;;;2.60;2.40;;;39.20;51.70;;;;;;4972803;28;20030;-77
2022/08/24 10:53:09;;;;;;;2.53;2.33;;;39.60;50.20;;;;;;4944189;28;20125;-76
2022/08/24 10:55:35;;;;;;;2.50;2.30;;;40.00;49.40;;;;;;4967869;28;20717;-77
2022/08/24 10:58:16;;;;;;;2.97;2.77;;;40.30;49.50;;;;;;4938010;28;20034;-77
2022/08/24 11:00:42;;;;;;;2.33;2.23;;;40.50;48.40;;;;;;4951330;28;20868;-77
2022/08/24 11:03:13;;;;;;;2.60;2.40;;;40.80;47.90;;;;;;4965834;28;20081;-77
2022/08/24 11:05:46;;;;;;;2.63;2.42;;;41.00;45.80;;;;;;4939195;28;20026;-77
2022/08/24 11:08:19;;;;;;;2.85;2.65;;;41.30;45.30;;;;;;4955422;28;20034;-77
2022/08/24 11:11:02;;;;;;;2.97;2.77;;;41.50;44.00;;;;;;4939227;28;20056;-77
2022/08/24 11:13:27;;;;;;;2.53;2.35;;;41.70;44.60;;;;;;4935005;28;20270;-78
2022/08/24 11:15:56;;;;;;;2.97;2.67;;;41.90;44.30;;;;;;4958011;28;20306;-78
2022/08/24 11:18:23;;;;;;;2.42;2.22;;;42.00;43.10;;;;;;4940332;28;20050;-77
2022/08/24 11:20:51;;;;;;;2.90;2.70;;;42.20;43.20;;;;;;4970920;28;20081;-78
2022/08/24 11:23:20;;;;;;;2.75;2.55;;;42.30;42.40;;;;;;4965722;28;20077;-77
2022/08/24 11:25:55;;;;;;;2.75;2.55;;;42.40;41.30;;;;;;4956420;28;20288;-77
2022/08/24 11:28:43;;;;;;;2.38;2.17;;;42.50;39.50;;;;;;4961752;28;20050;-78
2022/08/24 11:31:21;;;;;;;3.00;2.80;;;42.60;40.40;;;;;;4933627;28;20651;-78
2022/08/24 11:33:57;;;;;;;2.80;2.60;;;42.60;38.80;;;;;;4950456;28;20065;-77
2022/08/24 11:36:26;;;;;;;2.47;2.28;;;42.60;38.80;;;;;;4954428;28;20117;-77
2022/08/24 11:39:22;;;;;;;3.17;2.95;;;42.60;38.80;;;;;;4952857;28;20014;-77
2022/08/24 11:41:51;;;;;;;3.25;2.95;;;42.70;38.00;;;;;;4954163;28;20018;-77
2022/08/24 11:44:48;;;;;;;3.55;2.92;;;42.80;39.40;;;;;;4957165;28;20061;-78
2022/08/24 11:47:47;;;;;;;2.90;2.70;;;42.80;37.90;;;;;;4969282;28;20507;-77
2022/08/24 11:50:21;;;;;;;3.00;2.70;;;43.00;37.30;;;;;;4897693;28;20891;-77
2022/08/24 11:53:07;;;;;;;3.40;2.83;;;43.10;37.80;;;;;;4968639;28;20034;-77
2022/08/24 11:55:50;;;;;;;2.70;2.50;;;43.30;37.10;;;;;;4958274;28;20034;-77
2022/08/24 11:58:37;;;;;;;2.97;2.78;;;43.40;36.80;;;;;;4952778;28;20457;-78
2022/08/24 12:01:22;;;;;;;3.40;3.10;;;43.40;37.70;;;;;;4946332;28;20058;-77
2022/08/24 12:03:47;;;;;;;3.22;3.00;;;43.60;37.20;;;;;;4961761;28;20514;-78
2022/08/24 12:06:37;;;;;;;2.90;2.70;;;43.60;36.20;;;;;;4956294;28;20062;-78
2022/08/24 12:09:27;;;;;;;2.40;2.20;;;43.60;35.40;;;;;;4970468;28;20121;-78
2022/08/24 12:12:09;;;;;;;2.50;2.30;;;43.30;33.60;;;;;;4958108;28;20403;-77
2022/08/24 12:14:50;;;;;;;2.53;2.33;;;43.00;33.80;;;;;;4974251;28;20543;-77
2022/08/24 12:17:47;;;;;;;2.80;2.60;;;42.80;34.40;;;;;;4944584;28;20295;-77
2022/08/24 12:20:30;;;;;;;3.00;2.70;;;42.70;34.20;;;;;;4939777;28;20050;-77
2022/08/24 12:23:01;;;;;;;2.75;2.55;;;42.80;35.60;;;;;;4965411;28;20392;-77
2022/08/24 12:28:23;;;;;;;2.53;2.33;;;43.00;35.40;;;;;;4928101;28;20117;-77
2022/08/24 12:30:51;;;;;;;2.38;2.28;;;43.00;34.30;;;;;;4933930;28;20938;-77
2022/08/24 12:33:24;;;;;;;3.17;2.30;;;42.90;34.40;;;;;;4970825;28;20438;-77
2022/08/24 12:35:58;;;;;;;2.58;2.20;;;42.80;34.00;;;;;;4942394;28;20018;-77
2022/08/24 12:38:26;;;;;;;2.80;2.60;;;42.70;33.90;;;;;;4971037;28;20491;-78
2022/08/24 12:41:04;;;;;;;1.98;1.85;;;42.70;34.40;;;;;;4967816;28;21220;-78
2022/08/24 12:43:45;;;;;;;2.47;2.20;;;42.70;34.00;;;;;;4944458;28;20026;-77
2022/08/24 12:46:16;;;;;;;2.47;2.27;;;42.80;33.80;;;;;;4939508;28;20106;-77
2022/08/24 12:48:47;;;;;;;2.08;1.90;;;42.90;34.60;;;;;;4932807;28;20034;-77
2022/08/24 12:51:19;;;;;;;2.85;2.58;;;43.00;33.80;;;;;;4959604;28;20073;-78
2022/08/24 12:54:03;;;;;;;2.63;2.22;;;42.90;33.50;;;;;;4968168;28;20546;-78
2022/08/24 12:57:08;;;;;;;2.30;2.00;;;42.80;32.50;;;;;;4957725;28;20030;-77
2022/08/24 12:59:52;;;;;;;2.00;1.80;;;42.60;32.60;;;;;;4968016;28;20042;-77
2022/08/24 13:02:18;;;;;;;2.22;1.75;;;42.50;32.80;;;;;;4949568;28;20509;-77
2022/08/24 13:04:50;;;;;;;2.30;2.20;;;42.50;33.70;;;;;;4968646;28;20042;-78
2022/08/24 13:07:28;;;;;;;2.60;2.40;;;42.50;32.90;;;;;;4948718;28;20211;-78
2022/08/24 13:09:57;;;;;;;2.22;2.13;;;42.60;33.10;;;;;;4946164;28;20411;-78
2022/08/24 13:12:40;;;;;;;2.13;2.03;;;42.70;32.80;;;;;;4953511;28;20046;-78
2022/08/24 13:15:29;;;;;;;2.40;2.20;;;42.90;32.30;;;;;;4956248;28;20491;-78
2022/08/24 13:18:06;;;;;;;1.83;1.73;;;43.00;32.20;;;;;;4933746;28;20659;-78
2022/08/24 13:20:37;;;;;;;2.07;1.87;;;43.10;32.10;;;;;;4967408;28;20034;-77
2022/08/24 13:23:12;;;;;;;2.25;2.15;;;43.00;31.20;;;;;;4956223;28;20379;-78
2022/08/24 13:25:47;;;;;;;2.47;2.28;;;43.00;31.10;;;;;;4971169;28;20030;-78